Štip Airstrip

LW73 · Shtip, North Macedonia

METAR history LW73 · Štip Airstrip

Below you see METARs of the last few days. Select a year to browse through older METARs, from the year 2007 onwards.

May 18, 2024

Time Code Weather Temp. Visibility Ceiling Wind METAR/SPECI
20:20
V
22 °C 10 km+ 10,000 ft 130° 130° 6 kt METAR LWSK 181820Z 13006KT 9999 FEW040 BKN100 22/17 Q1013 NOSIG
19:50
V
23 °C 10 km+ - Var Var 2 kt METAR LWSK 181750Z VRB02KT 9999 FEW040 SCT100 23/18 Q1013 NOSIG
19:20
V
24 °C 10 km+ - 330° 330° 2 kt METAR LWSK 181720Z 33002KT CAVOK 24/19 Q1013 NOSIG
18:50
V
26 °C 10 km+ - 280° 280° 2 kt METAR LWSK 181650Z 28002KT CAVOK 26/19 Q1013 NOSIG
18:20
V
27 °C 10 km+ - Var Var 1 kt METAR LWSK 181620Z VRB01KT CAVOK 27/17 Q1012 NOSIG
17:50
V
28 °C 10 km+ - Var Var 1 kt METAR LWSK 181550Z VRB01KT CAVOK 28/18 Q1013 NOSIG
17:20
V
27 °C 10 km+ - Var Var 2 kt METAR LWSK 181520Z VRB02KT CAVOK 27/17 Q1013 NOSIG
16:50
V
28 °C 10 km+ - Var Var 2 kt METAR LWSK 181450Z VRB02KT 9999 FEW040 28/17 Q1013 NOSIG
16:20
V
27 °C 10 km+ - 200° 200° 3 kt METAR LWSK 181420Z 20003KT 160V240 9999 FEW040 27/18 Q1013 NOSIG
15:50
V
28 °C 10 km+ - Var Var 1 kt METAR LWSK 181350Z VRB01KT 9999 FEW040 28/17 Q1014 NOSIG
15:20
V
27 °C 10 km+ - Var Var 3 kt METAR LWSK 181320Z VRB03KT 9999 FEW040 27/18 Q1014 NOSIG
14:50
V
27 °C 10 km+ - 320° 320° 3 kt METAR LWSK 181250Z 32003KT 250V030 9999 FEW040 27/18 Q1015 NOSIG
14:20
V
27 °C 10 km+ - 300° 300° 3 kt METAR LWSK 181220Z 30003KT 230V010 9999 FEW040 27/17 Q1015 NOSIG
13:50
V
26 °C 10 km+ - 260° 260° 3 kt METAR LWSK 181150Z 26003KT 180V330 9999 FEW040 26/17 Q1015 NOSIG
13:20
V
25 °C 10 km+ - Var Var 3 kt METAR LWSK 181120Z VRB03KT 9999 FEW040 25/17 Q1016 NOSIG
12:50
V
25 °C 10 km+ - Var Var 2 kt METAR LWSK 181050Z VRB02KT 9999 FEW040 25/17 Q1016 NOSIG
12:20
V
24 °C 10 km+ - Var Var 1 kt METAR LWSK 181020Z VRB01KT CAVOK 24/16 Q1017 NOSIG
11:50
V
23 °C 10 km+ - Var Var 2 kt METAR LWSK 180950Z VRB02KT CAVOK 23/16 Q1017 NOSIG
11:20
V
22 °C 10 km+ - Var Var 2 kt METAR LWSK 180920Z VRB02KT CAVOK 22/15 Q1018 NOSIG
10:50
V
22 °C 10 km+ - Var Var 3 kt METAR LWSK 180850Z VRB03KT CAVOK 22/15 Q1018 NOSIG
10:20
V
21 °C 10 km+ - Var Var 2 kt METAR LWSK 180820Z VRB02KT CAVOK 21/15 Q1018 NOSIG
09:50
V
20 °C 10 km+ - Var Var 2 kt METAR LWSK 180750Z VRB02KT CAVOK 20/16 Q1018 NOSIG
09:20
V
19 °C 10 km+ - Var Var 2 kt METAR LWSK 180720Z VRB02KT CAVOK 19/15 Q1018 NOSIG
09:00
V
18 °C 10 km+ - 360° 360° 0 kt METAR LWSK 180700Z 00000KT CAVOK 18/04 Q1018 NOSIG
08:20
V
17 °C 10 km+ - Var Var 1 kt METAR LWSK 180620Z VRB01KT 9999 FEW060 17/14 Q1019 NOSIG
07:50
V
16 °C 10 km+ - Var Var 1 kt METAR LWSK 180550Z VRB01KT 9999 FEW060 16/13 Q1018 NOSIG
07:20
V
15 °C 10 km+ - Var Var 1 kt METAR LWSK 180520Z VRB01KT 9999 FEW060 15/12 Q1018 NOSIG
06:50
V
14 °C 10 km+ - Var Var 1 kt METAR LWSK 180450Z VRB01KT 9999 FEW060 14/11 Q1018 NOSIG
06:20
V
11 °C 10 km+ - Var Var 1 kt METAR LWSK 180420Z VRB01KT 9999 FEW060 11/10 Q1018 NOSIG
05:50
V
10 °C 10 km+ - 020° 020° 3 kt METAR LWSK 180350Z 02003KT 350V060 9999 FEW060 10/10 Q1017 NOSIG
05:20
V
10 °C 10 km+ - 040° 040° 3 kt METAR LWSK 180320Z 04003KT 9999 FEW070 10/10 Q1017 NOSIG
04:50
V
10 °C 10 km+ - Var Var 1 kt METAR LWSK 180250Z VRB01KT 9999 FEW070 10/10 Q1017 NOSIG
04:20
V
11 °C 10 km+ - Var Var 1 kt METAR LWSK 180220Z VRB01KT 9999 FEW070 11/10 Q1016 NOSIG
03:50
V
11 °C 10 km+ - 070° 070° 2 kt METAR LWSK 180150Z 07002KT CAVOK 11/10 Q1016 NOSIG
03:20
V
11 °C 10 km+ - Var Var 1 kt METAR LWSK 180120Z VRB01KT CAVOK 11/10 Q1016 NOSIG
02:50
V
11 °C 10 km+ - 030° 030° 5 kt METAR LWSK 180050Z 03005KT CAVOK 11/10 Q1016 NOSIG
02:20
V
12 °C 10 km+ - Var Var 2 kt METAR LWSK 180020Z VRB02KT CAVOK 12/11 Q1016 NOSIG
01:50
V
11 °C 10 km+ - Var Var 1 kt METAR LWSK 172350Z VRB01KT CAVOK 11/11 Q1016 NOSIG
01:20
V
14 °C 10 km+ - Var Var 2 kt METAR LWSK 172320Z VRB02KT CAVOK 14/12 Q1016 NOSIG
00:50
V
14 °C 10 km+ 7,000 ft Var Var 2 kt METAR LWSK 172250Z VRB02KT 9999 FEW040 BKN070 14/12 Q1017 NOSIG
00:20
V
15 °C 10 km+ 7,000 ft Var Var 2 kt METAR LWSK 172220Z VRB02KT 9999 FEW040 BKN070 15/13 Q1017 NOSIG

May 17, 2024

Time Code Weather Temp. Visibility Ceiling Wind METAR/SPECI
23:50
V
15 °C 10 km+ 7,000 ft 150° 150° 4 kt METAR LWSK 172150Z 15004KT 120V190 9999 FEW040 BKN070 15/13 Q1017 NOSIG
23:20
V
16 °C 10 km+ 7,000 ft 120° 120° 7 kt METAR LWSK 172120Z 12007KT 9999 FEW040 BKN070 16/13 Q1017 NOSIG
22:50
V
16 °C 10 km+ - 090° 090° 5 kt METAR LWSK 172050Z 09005KT 060V130 CAVOK 16/13 Q1016 NOSIG
22:20
V
17 °C 10 km+ - 130° 130° 8 kt METAR LWSK 172020Z 13008KT CAVOK 17/13 Q1016 NOSIG
21:50
V
17 °C 10 km+ - 130° 130° 6 kt METAR LWSK 171950Z 13006KT CAVOK 17/13 Q1016 NOSIG
21:20
V
17 °C 10 km+ - 140° 140° 7 kt METAR LWSK 171920Z 14007KT 110V170 CAVOK 17/13 Q1016 NOSIG
20:50
V
17 °C 10 km+ - 140° 140° 3 kt METAR LWSK 171850Z 14003KT 100V190 CAVOK 17/13 Q1015 NOSIG
20:20
V
18 °C 10 km+ - 150° 150° 5 kt METAR LWSK 171820Z 15005KT 130V190 CAVOK 18/14 Q1015 NOSIG
19:50
V
19 °C 10 km+ - 150° 150° 6 kt METAR LWSK 171750Z 15006KT 9999 NSC 19/15 Q1015 NOSIG
19:20
V
20 °C 10 km+ - 200° 200° 2 kt METAR LWSK 171720Z 20002KT 9999 FEW040 20/15 Q1014 NOSIG
18:50
V
22 °C 10 km+ - Var Var 2 kt METAR LWSK 171650Z VRB02KT 9999 FEW035 22/15 Q1014 NOSIG
18:20
V
22 °C 10 km+ - Var Var 1 kt METAR LWSK 171620Z VRB01KT 9999 FEW025 SCT035 22/15 Q1014 NOSIG
17:50
V
23 °C 10 km+ - Var Var 2 kt METAR LWSK 171550Z VRB02KT 9999 FEW025 SCT035 23/15 Q1014 NOSIG
17:20
V
21 °C 10 km+ - Var Var 1 kt METAR LWSK 171520Z VRB01KT 9999 FEW025 SCT035 21/14 Q1014 NOSIG
16:50
V
22 °C 10 km+ 3,500 ft Var Var 2 kt METAR LWSK 171450Z VRB02KT 9999 FEW020 BKN035 22/15 Q1014 NOSIG
16:20
V
22 °C 10 km+ 3,500 ft Var Var 2 kt METAR LWSK 171420Z VRB02KT 9999 FEW020 BKN035 22/15 Q1015 NOSIG
15:50
V
22 °C 10 km+ 3,500 ft 110° 110° 4 kt METAR LWSK 171350Z 11004KT 040V150 9999 FEW020 BKN035 22/14 Q1015 NOSIG
15:20
V
21 °C 10 km+ 3,500 ft 080° 080° 4 kt METAR LWSK 171320Z 08004KT 030V160 9999 FEW020 BKN035 21/14 Q1015 NOSIG
14:50
V
21 °C 10 km+ 3,500 ft 100° 100° 4 kt METAR LWSK 171250Z 10004KT 040V160 9999 FEW020 BKN035 21/14 Q1015 NOSIG
14:20
V
21 °C 10 km+ 3,500 ft 130° 130° 6 kt METAR LWSK 171220Z 13006KT 090V170 9999 FEW020 BKN035 21/13 Q1015 NOSIG
13:50
V
20 °C 10 km+ 3,500 ft 170° 170° 5 kt METAR LWSK 171150Z 17005KT 120V210 9999 FEW015 BKN035 20/13 Q1016 NOSIG
13:20
V
20 °C 10 km+ 3,500 ft 170° 170° 4 kt METAR LWSK 171120Z 17004KT 120V220 9999 FEW015 BKN035 20/13 Q1016 NOSIG
12:50
V
19 °C 10 km+ 3,500 ft Var Var 3 kt METAR LWSK 171050Z VRB03KT 9999 FEW015 BKN035 19/13 Q1016 NOSIG
12:20
V
19 °C 10 km+ 3,500 ft 160° 160° 3 kt METAR LWSK 171020Z 16003KT 100V200 9999 FEW015 BKN035 19/13 Q1016 NOSIG
11:50
V
19 °C 10 km+ 3,500 ft 210° 210° 4 kt METAR LWSK 170950Z 21004KT 180V280 9999 FEW015 BKN035 19/13 Q1017 NOSIG
11:20
V
18 °C 10 km+ 3,500 ft 230° 230° 3 kt METAR LWSK 170920Z 23003KT 160V320 9999 SCT015 BKN035 18/13 Q1017 NOSIG
10:50
V
18 °C 10 km+ 3,500 ft Var Var 2 kt METAR LWSK 170850Z VRB02KT 9999 SCT015 BKN035 18/13 Q1017 NOSIG
10:20
V
17 °C 10 km+ 3,500 ft 140° 140° 5 kt METAR LWSK 170820Z 14005KT 110V190 9999 SCT015 BKN035 17/12 Q1017 NOSIG
09:50
V
17 °C 10 km+ 3,500 ft 150° 150° 7 kt METAR LWSK 170750Z 15007KT 110V200 9999 SCT015 BKN035 17/12 Q1017 NOSIG
09:20
M
15 °C 10 km+ 3,000 ft 150° 150° 7 kt METAR LWSK 170720Z 15007KT 120V190 9999 SCT015 OVC030 15/12 Q1017 NOSIG
08:50
M
15 °C 10 km+ 3,000 ft 150° 150° 6 kt METAR LWSK 170650Z 15006KT 110V200 9999 SCT015 OVC030 15/11 Q1017 NOSIG
08:20
M
14 °C 10 km+ 3,000 ft 160° 160° 4 kt METAR LWSK 170620Z 16004KT 110V210 9999 SCT015 OVC030 14/11 Q1017 NOSIG
07:50
M
14 °C 10 km+ 3,000 ft 160° 160° 4 kt METAR LWSK 170550Z 16004KT 120V230 9999 SCT015 OVC030 14/11 Q1017 NOSIG
07:20
M
13 °C 10 km+ 3,000 ft 150° 150° 5 kt METAR LWSK 170520Z 15005KT 9999 SCT014 OVC030 13/11 Q1017 NOSIG
06:50
M
13 °C 10 km+ 2,900 ft 150° 150° 4 kt METAR LWSK 170450Z 15004KT 120V190 9999 SCT013 OVC029 13/11 Q1017 NOSIG
06:20
M
13 °C 10 km+ 2,900 ft 150° 150° 4 kt METAR LWSK 170420Z 15004KT 110V190 9999 SCT013 OVC029 13/11 Q1017 NOSIG
05:50
M
12 °C 10 km+ 2,600 ft Var Var 1 kt METAR LWSK 170350Z VRB01KT 9999 SCT013 OVC026 12/11 Q1017 NOSIG
05:20
V
13 °C 10 km+ 3,600 ft 120° 120° 3 kt METAR LWSK 170320Z 12003KT 050V140 9999 SCT013 OVC036 13/11 Q1017 NOSIG
04:53
V
12 °C 10 km+ 3,600 ft Var Var 1 kt METAR LWSK 170253Z VRB01KT 9999 SCT013 OVC036 12/11 Q1017 NOSIG
04:20
M
13 °C 10 km+ 1,300 ft 140° 140° 3 kt METAR LWSK 170220Z 14003KT 9999 BKN013 BKN036 13/11 Q1017 NOSIG
04:01
M
12 °C 10 km+ 1,300 ft 140° 140° 3 kt METAR LWSK 170201Z 14003KT 9999 BKN013 BKN036 12/11 Q1017 NOSIG
03:37
M
13 °C 10 km+ 1,300 ft Var Var 2 kt METAR LWSK 170137Z VRB02KT 9999 BKN013 BKN036 13/11 Q1017 NOSIG
03:07
M
13 °C 10 km+ 1,300 ft 130° 130° 4 kt METAR LWSK 170107Z 13004KT 9999 BKN013 BKN036 13/11 Q1017 NOSIG
02:20
M
13 °C 10 km+ 1,300 ft 150° 150° 3 kt METAR LWSK 170020Z 15003KT 090V210 9999 BKN013 BKN036 13/11 Q1017 NOSIG
01:50
M
13 °C 10 km+ 1,300 ft 150° 150° 3 kt METAR LWSK 162350Z 15003KT 060V220 9999 BKN013 BKN036 13/11 Q1018 NOSIG
01:25
M
13 °C 10 km+ 1,300 ft Var Var 1 kt METAR LWSK 162325Z VRB01KT 9999 BKN013 BKN036 13/11 Q1018 NOSIG
00:50
M
13 °C 10 km+ 1,300 ft Var Var 1 kt METAR LWSK 162250Z VRB01KT 9999 BKN013 BKN036 13/11 Q1018 NOSIG
00:20
M
13 °C 10 km+ 1,300 ft Var Var 2 kt METAR LWSK 162220Z VRB02KT 9999 BKN013 OVC036 13/11 Q1018 NOSIG

May 16, 2024

Time Code Weather Temp. Visibility Ceiling Wind METAR/SPECI
23:50
M
13 °C 10 km+ 1,300 ft 140° 140° 3 kt METAR LWSK 162150Z 14003KT 090V180 9999 BKN013 OVC036 13/11 Q1018 NOSIG
23:20
M
13 °C 10 km+ 1,300 ft 140° 140° 6 kt METAR LWSK 162120Z 14006KT 110V190 9999 BKN013 OVC030 13/11 Q1018 NOSIG
22:50
M
13 °C 10 km+ 1,300 ft 150° 150° 4 kt METAR LWSK 162050Z 15004KT 100V180 9999 BKN013 OVC030 13/11 Q1019 NOSIG
22:20
M
13 °C 10 km+ 1,300 ft 150° 150° 8 kt METAR LWSK 162020Z 15008KT 100V170 9999 BKN013 OVC030 13/11 Q1019 NOSIG
21:50
M
13 °C 10 km+ 1,300 ft 140° 140° 7 kt METAR LWSK 161950Z 14007KT 110V170 9999 BKN013 OVC030 13/11 Q1019 NOSIG
21:20
M
13 °C 10 km+ 1,500 ft 160° 160° 6 kt METAR LWSK 161920Z 16006KT 120V190 9999 BKN015 OVC030 13/11 Q1019 NOSIG
21:02
M
13 °C 10 km+ 1,500 ft Var Var 2 kt METAR LWSK 161902Z VRB02KT 9999 BKN015 BKN030 OVC070 13/12 Q1019 NOSIG
20:28
M
13 °C 10 km+ 3,000 ft 140° 140° 4 kt METAR LWSK 161828Z 14004KT 110V190 9999 FEW015 BKN030 OVC070 13/11 Q1018 NOSIG
19:50
M
13 °C 10 km+ 3,000 ft 130° 130° 5 kt METAR LWSK 161750Z 13005KT 090V150 9999 FEW015 BKN030 OVC070 13/11 Q1018 NOSIG
19:20
M
13 °C 10 km+ 3,000 ft 140° 140° 7 kt METAR LWSK 161720Z 14007KT 9999 FEW015 BKN030 OVC070 13/12 Q1018 NOSIG
18:50
M
13 °C 10 km+ 3,000 ft 140° 140° 7 kt METAR LWSK 161650Z 14007KT 9999 FEW015 BKN030 OVC070 13/12 Q1018 NOSIG
18:20
M
14 °C 10 km+ 2,600 ft 140° 140° 8 kt METAR LWSK 161620Z 14008KT 9999 FEW013 BKN026 OVC070 14/12 Q1018 NOSIG
17:50
M
14 °C 10 km+ 2,300 ft 140° 140° 7 kt METAR LWSK 161550Z 14007KT 9999 FEW013 BKN023 OVC070 14/12 Q1018 NOSIG
17:20
M
14 °C 10 km+ 2,300 ft 120° 120° 9 kt METAR LWSK 161520Z 12009KT 9999 FEW010 BKN023 OVC070 14/12 Q1018 NOSIG
16:50
M
14 °C 10 km+ 2,300 ft 150° 150° 4 kt METAR LWSK 161450Z 15004KT 100V210 9999 FEW010 BKN023 OVC070 14/13 Q1018 NOSIG
16:20
M
14 °C 10 km+ 2,300 ft 100° 100° 7 kt METAR LWSK 161420Z 10007KT 070V150 9999 -DZ FEW010 BKN023 OVC070 14/13 Q1017 NOSIG
15:50
M
14 °C 10 km+ 2,300 ft 150° 150° 10 kt METAR LWSK 161350Z 15010KT 120V190 9999 FEW007 BKN023 OVC070 14/12 Q1019 NOSIG
15:20
M
14 °C 10 km+ 2,300 ft 140° 140° 5 kt METAR LWSK 161320Z 14005KT 100V190 9999 FEW007 BKN023 OVC070 14/13 Q1019 NOSIG
14:50
M
13 °C 10 km+ 2,300 ft 150° 150° 9 kt METAR LWSK 161250Z 15009KT 120V180 9999 FEW007 BKN023 OVC070 13/13 Q1019 NOSIG
14:20
M
13 °C 10 km+ 1,500 ft 140° 140° 9 kt METAR LWSK 161220Z 14009KT 100V170 9999 FEW007 BKN015 OVC070 13/13 Q1020 NOSIG
13:50
M
13 °C 10 km+ 1,500 ft 140° 140° 7 kt METAR LWSK 161150Z 14007KT 9999 -RA FEW007 BKN015 OVC070 13/13 Q1019 NOSIG
13:20
M
13 °C 10 km+ 1,500 ft 160° 160° 6 kt METAR LWSK 161120Z 16006KT 130V220 9999 FEW007 BKN015 OVC070 13/13 Q1020 NOSIG
12:50
M
13 °C 10 km+ 2,000 ft 120° 120° 4 kt METAR LWSK 161050Z 12004KT 060V160 9999 -RA SCT005 BKN020 OVC050 13/13 Q1020 NOSIG
12:20
M
12 °C 7 km 1,700 ft 160° 160° 3 kt METAR LWSK 161020Z 16003KT 110V220 7000 RA FEW007 BKN017 OVC050 12/12 Q1020 NOSIG
11:50
M
12 °C 5 km 2,600 ft Var Var 1 kt METAR LWSK 160950Z VRB01KT 5000 RA FEW007 BKN026 OVC070 12/12 Q1020 NOSIG
11:20
M
12 °C 8 km 2,600 ft Var Var 2 kt METAR LWSK 160920Z VRB02KT 8000 -RA FEW007 BKN026 OVC070 12/11 Q1020 NOSIG
10:50
M
12 °C 8 km 2,600 ft 130° 130° 5 kt METAR LWSK 160850Z 13005KT 100V230 8000 RA FEW007 BKN026 OVC070 12/11 Q1020 NOSIG
10:20
M
13 °C 9 km 2,600 ft Var Var 2 kt METAR LWSK 160820Z VRB02KT 9000 RA FEW007 BKN026 OVC050 13/11 Q1020 NOSIG
09:50
V
14 °C 10 km+ 7,000 ft Var Var 2 kt METAR LWSK 160750Z VRB02KT 9999 FEW007 SCT023 OVC070 14/11 Q1020 NOSIG
09:20
V
13 °C 10 km+ 6,000 ft 060° 060° 3 kt METAR LWSK 160720Z 06003KT 030V110 9999 -DZ FEW007 SCT023 BKN060 13/11 Q1019 NOSIG
08:50
V
13 °C 10 km+ 5,000 ft 110° 110° 5 kt METAR LWSK 160650Z 11005KT 080V190 9999 +RA SCT020 OVC050 13/11 Q1019 NOSIG
08:20
V
14 °C 10 km+ 3,300 ft Var Var 1 kt METAR LWSK 160620Z VRB01KT 9999 SCT020 BKN033 14/10 Q1019 NOSIG
07:50
M
13 °C 10 km+ 3,000 ft Var Var 2 kt METAR LWSK 160550Z VRB02KT 9999 OVC030 13/10 Q1019 NOSIG
Report a change